Time;durP1;ratioP1;P1;durP2;ratioP2;P2;SDS_P1;SDS_P2;PMS_P1;PMS_P2;Temp;Humidity;BMP_temperature;BMP_pressure;BME280_temperature;BME280_humidity;BME280_pressure;Samples;Min_cycle;Max_cycle;Signal;HPM_P1;HPM_P2
2023/06/05 00:00:06;;;;;;;11.30;7.03;;;;;;;13.74;100.00;95067.16;5140527;27;20200;-73
2023/06/05 00:02:33;;;;;;;10.40;7.32;;;;;;;13.80;100.00;95062.31;5137849;27;20203;-73
2023/06/05 00:05:01;;;;;;;10.27;6.80;;;;;;;13.75;100.00;95068.75;5131897;27;20220;-72
2023/06/05 00:07:28;;;;;;;11.95;6.78;;;;;;;13.76;100.00;95062.19;5128905;27;20205;-73
2023/06/05 00:09:54;;;;;;;11.57;6.43;;;;;;;13.72;100.00;95065.91;5132971;27;20257;-73
2023/06/05 00:12:23;;;;;;;9.20;7.20;;;;;;;13.66;100.00;95065.34;5137799;27;20243;-73
2023/06/05 00:14:50;;;;;;;8.40;6.60;;;;;;;13.71;100.00;95064.31;5128056;27;20211;-73
2023/06/05 00:17:17;;;;;;;11.10;6.68;;;;;;;13.63;100.00;95067.94;5135853;27;20694;-73
2023/06/05 00:19:44;;;;;;;8.80;6.82;;;;;;;13.56;100.00;95067.66;5146768;27;20387;-73
2023/06/05 00:22:11;;;;;;;17.25;7.00;;;;;;;13.62;100.00;95069.84;5149286;27;20584;-73
2023/06/05 00:24:39;;;;;;;8.52;6.20;;;;;;;13.55;100.00;95066.88;5148821;27;20212;-73
2023/06/05 00:27:06;;;;;;;9.07;6.47;;;;;;;13.52;100.00;95062.91;5147945;27;20204;-73
2023/06/05 00:29:34;;;;;;;9.02;6.60;;;;;;;13.46;100.00;95068.88;5149063;27;20243;-73
2023/06/05 00:32:01;;;;;;;10.75;6.90;;;;;;;13.50;100.00;95069.81;5132028;27;20287;-73
2023/06/05 00:34:27;;;;;;;12.68;7.20;;;;;;;13.51;100.00;95072.22;5142138;27;20197;-73
2023/06/05 00:36:54;;;;;;;9.50;6.78;;;;;;;13.54;100.00;95073.44;5142493;27;20196;-74
2023/06/05 00:39:21;;;;;;;9.25;6.18;;;;;;;13.53;100.00;95059.03;5147185;27;20200;-73
2023/06/05 00:41:48;;;;;;;9.00;6.60;;;;;;;13.51;100.00;95066.75;5153144;27;20208;-73
2023/06/05 00:44:16;;;;;;;10.18;6.60;;;;;;;13.47;100.00;95070.47;5133935;27;20189;-73
2023/06/05 00:46:45;;;;;;;9.95;6.78;;;;;;;13.53;100.00;95059.03;5141483;27;20738;-73
2023/06/05 00:49:12;;;;;;;10.05;6.50;;;;;;;13.46;100.00;95047.91;5152699;27;20207;-73
2023/06/05 00:51:42;;;;;;;10.77;6.72;;;;;;;13.56;100.00;95052.13;5152010;27;20200;-73
2023/06/05 00:54:09;;;;;;;12.63;6.60;;;;;;;13.59;100.00;95050.66;5135754;27;20226;-74
2023/06/05 00:56:36;;;;;;;13.82;6.40;;;;;;;13.56;100.00;95043.97;5140417;27;20210;-73
2023/06/05 00:59:04;;;;;;;9.65;5.78;;;;;;;13.61;100.00;95043.75;5143686;27;20288;-74
2023/06/05 01:01:32;;;;;;;8.98;6.45;;;;;;;13.63;100.00;95035.25;5134167;27;20238;-73
2023/06/05 01:04:01;;;;;;;11.32;6.28;;;;;;;13.57;100.00;95036.59;5135259;27;20204;-73
2023/06/05 01:06:30;;;;;;;9.00;5.68;;;;;;;13.56;100.00;95035.81;5152423;27;20231;-73
2023/06/05 01:08:59;;;;;;;8.70;6.80;;;;;;;13.62;100.00;95039.91;5152790;27;20314;-73
2023/06/05 01:11:35;;;;;;;11.45;6.45;;;;;;;13.61;100.00;95040.25;5150832;27;20227;-74
2023/06/05 01:14:09;;;;;;;15.98;5.70;;;;;;;13.49;100.00;95036.38;5135848;27;20302;-73
2023/06/05 01:16:37;;;;;;;10.43;5.47;;;;;;;13.58;100.00;95032.75;5152419;27;20926;-73
2023/06/05 01:19:06;;;;;;;8.93;5.82;;;;;;;13.55;100.00;95027.97;5150787;27;20750;-73
2023/06/05 01:21:33;;;;;;;10.13;5.65;;;;;;;13.49;100.00;95036.38;5141269;27;20219;-73
2023/06/05 01:24:01;;;;;;;8.10;5.40;;;;;;;13.48;100.00;95029.31;5140369;27;20269;-73
2023/06/05 01:26:36;;;;;;;6.78;5.20;;;;;;;13.52;100.00;95026.75;5144620;27;20359;-74
2023/06/05 01:29:07;;;;;;;8.05;6.05;;;;;;;13.49;100.00;95030.91;5134054;27;20741;-74
2023/06/05 01:31:36;;;;;;;7.72;5.50;;;;;;;13.43;100.00;95026.00;5148107;27;20238;-73
2023/06/05 01:34:11;;;;;;;7.20;5.45;;;;;;;13.43;100.00;95032.25;5148087;27;20208;-74
2023/06/05 01:36:40;;;;;;;9.40;5.45;;;;;;;13.37;100.00;95027.38;5142518;27;20226;-73
2023/06/05 01:39:10;;;;;;;10.70;6.65;;;;;;;13.37;100.00;95022.72;5138503;27;20592;-73
2023/06/05 01:41:39;;;;;;;7.65;5.72;;;;;;;13.40;100.00;95019.31;5147843;27;20220;-73
2023/06/05 01:44:09;;;;;;;8.98;5.88;;;;;;;13.39;100.00;95015.00;5136599;27;20197;-73
2023/06/05 01:46:36;;;;;;;9.65;5.18;;;;;;;13.42;100.00;95014.31;5151471;27;20235;-73
2023/06/05 01:49:03;;;;;;;9.25;5.80;;;;;;;13.38;100.00;95007.97;5136866;27;20304;-73
2023/06/05 01:51:30;;;;;;;8.20;5.93;;;;;;;13.26;100.00;95007.91;5148302;27;20196;-74
2023/06/05 01:53:57;;;;;;;8.07;5.47;;;;;;;13.23;100.00;95014.06;5152186;27;20541;-73
2023/06/05 01:56:25;;;;;;;10.93;6.90;;;;;;;13.27;100.00;95006.78;5152579;27;20204;-73
2023/06/05 01:58:54;;;;;;;9.73;6.65;;;;;;;13.21;100.00;95013.59;5142788;27;20192;-73
2023/06/05 02:01:22;;;;;;;11.05;7.25;;;;;;;13.15;100.00;95009.47;5137476;27;20723;-73
2023/06/05 02:03:49;;;;;;;10.10;6.65;;;;;;;13.10;100.00;95015.91;5150768;27;20207;-73
2023/06/05 02:06:16;;;;;;;12.88;6.32;;;;;;;13.02;100.00;95018.69;5152342;27;20248;-73
2023/06/05 02:08:44;;;;;;;11.65;6.38;;;;;;;12.86;100.00;95014.97;5152396;27;20200;-73
2023/06/05 02:11:11;;;;;;;10.10;7.03;;;;;;;12.78;100.00;95011.19;5150440;27;20655;-74
2023/06/05 02:13:41;;;;;;;10.68;6.15;;;;;;;12.85;100.00;95016.13;5152062;27;20287;-73
2023/06/05 02:16:11;;;;;;;10.27;5.90;;;;;;;12.96;100.00;95006.44;5150150;27;20208;-74
2023/06/05 02:18:38;;;;;;;15.18;6.75;;;;;;;12.98;100.00;95006.91;5132144;27;20221;-74
2023/06/05 02:21:05;;;;;;;13.73;6.72;;;;;;;12.96;100.00;95011.88;5143955;27;20530;-74
2023/06/05 02:23:32;;;;;;;13.40;6.60;;;;;;;13.10;100.00;95023.25;5151980;27;20264;-74
2023/06/05 02:25:59;;;;;;;7.57;6.20;;;;;;;13.12;100.00;95023.69;5152018;27;20236;-74
2023/06/05 02:28:27;;;;;;;11.50;7.28;;;;;;;12.73;100.00;95025.78;5149491;27;20204;-74
2023/06/05 02:30:55;;;;;;;11.30;6.70;;;;;;;12.75;100.00;95018.09;5148903;27;20268;-74
2023/06/05 02:33:23;;;;;;;10.55;6.43;;;;;;;12.73;100.00;95025.78;5145927;27;20639;-74
2023/06/05 02:35:49;;;;;;;12.02;6.90;;;;;;;12.84;100.00;95020.75;5149600;27;20603;-74
2023/06/05 02:38:16;;;;;;;13.57;7.50;;;;;;;12.85;100.00;95016.13;5152261;27;20248;-74
2023/06/05 02:40:43;;;;;;;13.05;6.43;;;;;;;12.75;100.00;95026.25;5151101;27;20281;-74
2023/06/05 02:43:11;;;;;;;9.50;6.65;;;;;;;12.78;100.00;95012.00;5141946;27;20208;-73
2023/06/05 02:45:38;;;;;;;11.98;7.32;;;;;;;12.78;100.00;95012.00;5144216;27;20192;-73
2023/06/05 02:48:06;;;;;;;11.75;6.82;;;;;;;12.86;100.00;95014.97;5151177;27;20226;-75
2023/06/05 02:50:33;;;;;;;12.10;6.72;;;;;;;12.95;100.00;95013.00;5147499;27;20643;-73
2023/06/05 02:53:00;;;;;;;11.10;7.05;;;;;;;12.97;100.00;95013.47;5143309;27;20245;-73
2023/06/05 02:55:29;;;;;;;8.50;6.35;;;;;;;13.04;100.00;95019.16;5143773;27;20193;-75
2023/06/05 02:57:57;;;;;;;11.25;7.03;;;;;;;13.09;100.00;95010.78;5142555;27;20650;-75
2023/06/05 03:00:25;;;;;;;10.18;6.82;;;;;;;13.10;100.00;95018.63;5140655;27;20627;-74
2023/06/05 03:02:52;;;;;;;12.05;7.55;;;;;;;13.24;100.00;95007.47;5140794;27;20254;-74
2023/06/05 03:05:24;;;;;;;12.18;7.78;;;;;;;13.06;100.00;95003.28;5143161;27;20220;-74
2023/06/05 03:07:53;;;;;;;12.68;8.27;;;;;;;13.22;100.00;95028.78;5141316;27;20671;-74
2023/06/05 03:10:20;;;;;;;11.60;7.60;;;;;;;13.57;100.00;95025.72;5142853;27;20265;-75
2023/06/05 03:12:47;;;;;;;9.90;7.20;;;;;;;14.01;100.00;95032.25;5141582;27;20199;-75
2023/06/05 03:15:15;;;;;;;12.27;7.10;;;;;;;14.32;100.00;95023.53;5138814;27;20204;-75
2023/06/05 03:17:42;;;;;;;10.23;7.25;;;;;;;14.85;100.00;95026.00;5143765;27;20273;-75
2023/06/05 03:20:10;;;;;;;12.85;8.32;;;;;;;15.41;95.55;95023.31;5141556;27;20217;-73
2023/06/05 03:22:38;;;;;;;12.25;6.72;;;;;;;16.12;91.89;95022.47;5141296;27;20208;-73
2023/06/05 03:25:06;;;;;;;9.52;6.75;;;;;;;16.49;89.32;95024.91;5140732;27;20902;-73
2023/06/05 03:27:33;;;;;;;9.63;6.18;;;;;;;16.74;87.19;95031.75;5142025;27;20315;-73
2023/06/05 03:29:59;;;;;;;10.68;6.70;;;;;;;16.95;84.73;95032.22;5140845;27;20711;-73
2023/06/05 03:32:26;;;;;;;10.93;6.63;;;;;;;17.42;82.38;95025.78;5147643;27;20246;-73
2023/06/05 03:34:53;;;;;;;12.35;6.97;;;;;;;17.85;81.00;95023.88;5145767;27;20448;-73
2023/06/05 03:37:19;;;;;;;13.20;7.10;;;;;;;17.94;79.67;95022.47;5150818;27;20718;-75
2023/06/05 03:39:48;;;;;;;8.07;5.43;;;;;;;18.45;78.34;95028.44;5150578;27;20220;-74
2023/06/05 03:42:14;;;;;;;9.23;6.85;;;;;;;18.31;77.17;95019.97;5150281;27;20201;-75
2023/06/05 03:44:41;;;;;;;8.70;6.80;;;;;;;18.87;78.48;95024.78;5138421;27;20193;-74
2023/06/05 03:47:08;;;;;;;9.82;6.68;;;;;;;19.54;74.17;95024.94;5138904;27;20686;-74
2023/06/05 03:49:35;;;;;;;9.70;6.50;;;;;;;19.72;72.70;95023.16;5142779;27;20253;-75
2023/06/05 03:52:02;;;;;;;11.52;8.25;;;;;;;20.07;71.61;95024.69;5146866;27;20205;-75
2023/06/05 03:54:32;;;;;;;10.60;7.22;;;;;;;20.61;70.27;95020.47;5129856;27;20201;-74
2023/06/05 03:57:02;;;;;;;9.65;7.75;;;;;;;21.08;68.06;95023.13;5142078;27;20229;-75
2023/06/05 03:59:29;;;;;;;11.43;7.60;;;;;;;21.37;67.10;95023.31;5135688;27;20201;-74
2023/06/05 04:01:56;;;;;;;10.27;7.90;;;;;;;20.74;68.85;95027.25;5141764;27;20201;-74
2023/06/05 04:04:23;;;;;;;11.02;7.75;;;;;;;20.57;69.79;95032.25;5140264;27;20193;-75
2023/06/05 04:06:50;;;;;;;10.10;7.80;;;;;;;20.26;70.23;95027.22;5150205;27;20231;-74
2023/06/05 04:09:17;;;;;;;9.50;8.10;;;;;;;20.91;70.15;95023.81;5150432;27;20252;-74
2023/06/05 04:11:45;;;;;;;12.02;7.50;;;;;;;21.40;67.44;95022.56;5147339;27;20224;-74
2023/06/05 04:14:14;;;;;;;8.75;7.72;;;;;;;22.52;64.10;95015.75;5154313;27;20208;-73
2023/06/05 04:16:42;;;;;;;12.90;7.75;;;;;;;23.14;61.65;95020.81;5134503;27;20200;-73
2023/06/05 04:19:11;;;;;;;11.25;7.95;;;;;;;24.07;59.20;95008.22;5137154;27;20617;-74
2023/06/05 04:21:39;;;;;;;11.07;8.68;;;;;;;24.01;59.72;95012.59;5134211;27;20204;-74
2023/06/05 04:24:09;;;;;;;8.73;7.82;;;;;;;24.65;57.14;95014.94;5133588;27;20256;-73
2023/06/05 04:26:36;;;;;;;11.75;8.52;;;;;;;24.79;56.66;95017.59;5137999;27;20209;-73
2023/06/05 04:29:09;;;;;;;17.23;8.50;;;;;;;24.58;56.95;95022.53;5146737;27;20208;-73
2023/06/05 04:31:40;;;;;;;13.10;8.52;;;;;;;24.65;57.24;95023.25;5133251;27;20233;-73
2023/06/05 04:34:08;;;;;;;13.82;9.45;;;;;;;25.56;54.84;95010.91;5146697;27;20197;-73
2023/06/05 04:36:36;;;;;;;13.93;10.05;;;;;;;25.04;55.94;95016.59;5142947;27;20231;-72
2023/06/05 04:39:04;;;;;;;13.52;10.27;;;;;;;24.85;55.69;95017.16;5152508;27;20579;-72
2023/06/05 04:41:32;;;;;;;14.63;10.27;;;;;;;24.35;57.49;95014.78;5154351;27;20239;-72
2023/06/05 04:43:59;;;;;;;14.77;11.40;;;;;;;23.29;60.47;95016.84;5135166;27;20556;-72
2023/06/05 04:46:26;;;;;;;14.25;11.75;;;;;;;21.08;67.50;95039.66;5133779;27;20240;-72
2023/06/05 04:48:57;;;;;;;17.77;11.68;;;;;;;21.51;67.25;95034.41;5152188;27;20208;-72
2023/06/05 04:51:24;;;;;;;16.55;11.85;;;;;;;21.19;68.79;95034.25;5141149;27;20212;-72
2023/06/05 04:53:52;;;;;;;14.27;11.88;;;;;;;20.76;70.35;95033.19;5132612;27;20285;-72
2023/06/05 04:56:20;;;;;;;17.35;11.68;;;;;;;20.47;70.72;95032.16;5132919;27;20219;-72
2023/06/05 04:58:50;;;;;;;15.32;11.85;;;;;;;20.20;71.63;95037.81;5153485;27;20655;-72
2023/06/05 05:01:17;;;;;;;12.65;11.10;;;;;;;20.66;71.53;95039.38;5154227;27;20200;-72
2023/06/05 05:03:45;;;;;;;13.82;11.05;;;;;;;22.15;67.93;95029.09;5153572;27;20204;-72
2023/06/05 05:06:16;;;;;;;14.03;11.50;;;;;;;24.14;61.45;95017.66;5138737;27;20477;-72
2023/06/05 05:08:44;;;;;;;17.23;11.35;;;;;;;25.66;56.44;95018.34;5132988;27;20299;-72
2023/06/05 05:11:12;;;;;;;12.07;10.77;;;;;;;25.82;54.88;95013.00;5134268;27;20328;-72
2023/06/05 05:13:38;;;;;;;15.80;10.70;;;;;;;26.17;54.41;95012.50;5144993;27;20205;-72
2023/06/05 05:16:05;;;;;;;12.15;10.85;;;;;;;27.48;50.96;95005.97;5132622;27;20543;-72
2023/06/05 05:18:32;;;;;;;14.48;10.45;;;;;;;27.73;49.12;95009.09;5132699;27;20232;-72
2023/06/05 05:20:59;;;;;;;14.10;10.63;;;;;;;27.42;50.82;95007.69;5132672;27;20217;-72
2023/06/05 05:23:27;;;;;;;13.35;10.65;;;;;;;29.01;46.93;94997.81;5133138;27;20205;-72
2023/06/05 05:25:54;;;;;;;11.45;10.30;;;;;;;29.51;45.81;95002.91;5132626;27;20507;-72
2023/06/05 05:28:21;;;;;;;14.40;11.57;;;;;;;30.32;44.15;95001.75;5132237;27;20669;-72
2023/06/05 05:30:47;;;;;;;15.38;10.95;;;;;;;29.12;46.66;95000.31;5132411;27;20237;-72
2023/06/05 05:33:15;;;;;;;13.88;12.30;;;;;;;27.95;48.59;95012.19;5142494;27;20200;-72
2023/06/05 05:35:42;;;;;;;14.20;11.23;;;;;;;28.85;48.14;95009.75;5135904;27;20205;-72
2023/06/05 05:38:08;;;;;;;11.25;10.07;;;;;;;28.23;48.07;95006.03;5132348;27;20449;-72
2023/06/05 05:40:37;;;;;;;16.55;10.20;;;;;;;27.66;50.51;95014.00;5132259;27;20621;-73
2023/06/05 05:43:04;;;;;;;10.48;9.40;;;;;;;26.38;52.79;95022.53;5132249;27;20671;-72
2023/06/05 05:45:30;;;;;;;13.68;10.30;;;;;;;25.72;53.94;95019.44;5132213;27;20204;-72
2023/06/05 05:47:57;;;;;;;13.32;10.43;;;;;;;24.64;57.64;95020.91;5132205;27;20232;-74
2023/06/05 05:50:24;;;;;;;13.10;10.02;;;;;;;24.24;58.54;95016.84;5132519;27;20208;-73
2023/06/05 05:52:53;;;;;;;15.27;10.85;;;;;;;24.71;58.14;95021.63;5132384;27;20205;-72
2023/06/05 05:55:19;;;;;;;14.52;10.77;;;;;;;24.18;59.13;95012.91;5131867;27;20216;-72
2023/06/05 05:57:48;;;;;;;13.30;9.75;;;;;;;24.79;59.01;95009.28;5132085;27;20204;-72
2023/06/05 06:00:15;;;;;;;13.52;10.10;;;;;;;24.82;58.32;95004.13;5131960;27;20688;-74
2023/06/05 06:02:43;;;;;;;12.80;10.38;;;;;;;23.81;60.54;95011.50;5132015;27;20273;-73
2023/06/05 06:05:12;;;;;;;12.15;10.65;;;;;;;23.70;62.08;95011.56;5145395;27;20205;-74
2023/06/05 06:07:40;;;;;;;11.40;10.20;;;;;;;24.86;58.09;95013.19;5132042;27;20618;-74
2023/06/05 06:10:09;;;;;;;14.18;9.95;;;;;;;23.75;60.94;95010.38;5131834;27;20637;-74
2023/06/05 06:12:36;;;;;;;14.50;11.82;;;;;;;22.97;64.32;95016.13;5132321;27;20208;-74
2023/06/05 06:15:05;;;;;;;15.27;10.60;;;;;;;23.73;62.07;95010.00;5131689;27;20197;-74
2023/06/05 06:17:32;;;;;;;15.20;10.43;;;;;;;24.37;60.71;95004.09;5145285;27;20200;-72
2023/06/05 06:19:58;;;;;;;14.90;10.85;;;;;;;25.26;57.45;95004.09;5145151;27;20680;-73
2023/06/05 06:22:26;;;;;;;15.43;10.55;;;;;;;24.78;58.04;95009.69;5131753;27;20575;-73
2023/06/05 06:24:53;;;;;;;12.68;10.85;;;;;;;23.33;62.56;95020.38;5138454;27;20225;-72
2023/06/05 06:27:21;;;;;;;16.17;11.68;;;;;;;23.40;63.34;95014.81;5152251;27;20236;-73
2023/06/05 06:29:49;;;;;;;15.98;12.07;;;;;;;23.01;63.61;95008.63;5151483;27;20231;-72
2023/06/05 06:32:18;;;;;;;14.25;11.23;;;;;;;23.12;64.28;95008.59;5151693;27;20200;-72
2023/06/05 06:34:45;;;;;;;14.65;11.35;;;;;;;22.99;63.76;95005.47;5151490;27;21026;-73
2023/06/05 06:37:14;;;;;;;17.75;12.73;;;;;;;22.52;65.34;95015.75;5149994;27;20204;-74
2023/06/05 06:39:41;;;;;;;15.88;12.10;;;;;;;22.59;65.32;95004.69;5131240;27;20277;-72
2023/06/05 06:42:09;;;;;;;16.13;11.73;;;;;;;23.60;62.32;94998.59;5130873;27;20197;-72
2023/06/05 06:44:36;;;;;;;17.77;12.43;;;;;;;23.33;63.47;95001.03;5131189;27;20207;-72
2023/06/05 06:47:03;;;;;;;16.77;12.23;;;;;;;23.39;61.73;95002.19;5133801;27;20238;-74
2023/06/05 06:49:31;;;;;;;17.33;11.57;;;;;;;23.66;62.70;94998.94;5151933;27;20300;-72
2023/06/05 06:51:58;;;;;;;14.68;11.43;;;;;;;23.24;62.98;95000.66;5134222;27;20208;-73
2023/06/05 06:54:28;;;;;;;15.07;11.73;;;;;;;23.49;61.38;94999.78;5130848;27;20201;-73
2023/06/05 06:56:55;;;;;;;14.05;11.68;;;;;;;22.98;62.56;94992.81;5130599;27;20679;-73
2023/06/05 06:59:22;;;;;;;14.95;11.82;;;;;;;23.39;62.37;94996.66;5131189;27;20193;-72
2023/06/05 07:02:09;;;;;;;16.33;11.07;;;;;;;25.00;57.13;94982.59;5131108;27;20220;-73
2023/06/05 07:04:38;;;;;;;13.60;10.98;;;;;;;25.12;57.36;94976.53;5131141;27;20211;-73
2023/06/05 07:07:05;;;;;;;15.40;11.73;;;;;;;24.23;58.68;94987.56;5130872;27;20212;-73
2023/06/05 07:09:32;;;;;;;15.68;12.65;;;;;;;24.01;59.35;94975.84;5130249;27;20208;-73
2023/06/05 07:12:04;;;;;;;16.80;12.55;;;;;;;24.40;59.55;94978.34;5130511;27;20731;-74
2023/06/05 07:14:32;;;;;;;15.35;12.48;;;;;;;24.29;58.95;94977.66;5132732;27;20213;-74
2023/06/05 07:16:59;;;;;;;14.82;12.30;;;;;;;24.92;57.94;94983.81;5151287;27;20211;-73
2023/06/05 07:19:27;;;;;;;12.82;10.30;;;;;;;24.65;57.48;94981.69;5134485;27;20239;-74
2023/06/05 07:21:56;;;;;;;13.98;10.93;;;;;;;24.59;58.62;94986.13;5130449;27;20215;-73
2023/06/05 07:24:24;;;;;;;14.27;10.90;;;;;;;24.36;58.16;94974.81;5147454;27;20677;-73
2023/06/05 07:26:51;;;;;;;14.07;11.70;;;;;;;23.92;59.48;94990.09;5140153;27;20208;-73
2023/06/05 07:29:19;;;;;;;13.40;11.13;;;;;;;24.90;56.09;94975.13;5133880;27;20224;-73
2023/06/05 07:31:45;;;;;;;16.23;11.45;;;;;;;24.90;56.54;94986.22;5151123;27;20279;-73
2023/06/05 07:34:13;;;;;;;14.82;11.52;;;;;;;25.33;55.71;94987.38;5146499;27;20200;-73
2023/06/05 07:36:40;;;;;;;14.23;11.93;;;;;;;26.17;54.09;94976.38;5130135;27;20687;-73
2023/06/05 07:39:08;;;;;;;13.20;11.13;;;;;;;26.05;52.90;94988.06;5130048;27;20663;-73
2023/06/05 07:41:35;;;;;;;17.17;11.63;;;;;;;24.97;55.72;94992.53;5129751;27;20291;-73
2023/06/05 07:44:02;;;;;;;18.00;12.20;;;;;;;24.42;57.87;94995.34;5129943;27;20208;-73
2023/06/05 07:46:28;;;;;;;18.38;11.23;;;;;;;24.96;56.16;95001.25;5129299;27;20266;-73
2023/06/05 07:48:55;;;;;;;15.40;11.30;;;;;;;25.76;54.17;95003.53;5130052;27;20629;-73
2023/06/05 07:51:22;;;;;;;14.63;11.70;;;;;;;26.15;53.43;94992.69;5129733;27;20565;-73
2023/06/05 07:53:49;;;;;;;17.15;12.40;;;;;;;25.16;54.57;95005.00;5129981;27;20270;-74
2023/06/05 07:56:17;;;;;;;15.23;11.27;;;;;;;24.83;56.19;95000.16;5129053;27;20232;-74
2023/06/05 07:58:44;;;;;;;17.55;12.20;;;;;;;24.33;56.76;95012.41;5134497;27;20291;-73
2023/06/05 08:01:12;;;;;;;16.15;12.38;;;;;;;23.52;59.61;95016.38;5149545;27;20207;-72
2023/06/05 08:03:41;;;;;;;16.27;12.13;;;;;;;23.36;60.99;95003.00;5130183;27;20212;-73
2023/06/05 08:06:08;;;;;;;18.15;13.15;;;;;;;23.49;60.98;95005.31;5129501;27;20211;-72
2023/06/05 08:08:35;;;;;;;16.55;12.50;;;;;;;25.13;57.63;95000.28;5129831;27;20228;-72
2023/06/05 08:11:01;;;;;;;13.27;10.65;;;;;;;25.01;55.49;95003.59;5129229;27;20625;-73
2023/06/05 08:13:30;;;;;;;12.68;10.70;;;;;;;25.68;54.81;95007.63;5129829;27;20205;-73
2023/06/05 08:15:57;;;;;;;16.45;11.50;;;;;;;25.80;55.54;95004.28;5129641;27;20656;-73
2023/06/05 08:18:23;;;;;;;17.38;12.48;;;;;;;24.94;56.03;95009.19;5129468;27;20229;-73
2023/06/05 08:20:50;;;;;;;17.00;12.88;;;;;;;23.53;60.07;95008.88;5129494;27;20725;-73
2023/06/05 08:23:17;;;;;;;18.42;13.18;;;;;;;23.71;60.53;95012.38;5138072;27;20257;-73
2023/06/05 08:25:44;;;;;;;18.65;11.88;;;;;;;24.37;59.01;95010.41;5148804;27;20282;-72
2023/06/05 08:28:11;;;;;;;16.13;12.10;;;;;;;23.87;59.71;95014.66;5129429;27;20297;-72
2023/06/05 08:30:40;;;;;;;17.80;11.60;;;;;;;23.62;59.93;95018.34;5129478;27;20645;-72
2023/06/05 08:33:06;;;;;;;13.95;11.13;;;;;;;23.01;62.26;95026.00;5138367;27;20285;-72
2023/06/05 08:35:33;;;;;;;15.80;11.65;;;;;;;22.70;62.52;95022.03;5149898;27;20602;-73
2023/06/05 08:38:01;;;;;;;15.82;11.77;;;;;;;22.68;63.79;95018.91;5141312;27;20209;-74
2023/06/05 08:40:29;;;;;;;14.88;12.13;;;;;;;24.04;61.09;95014.56;5129247;27;20233;-73
2023/06/05 08:42:56;;;;;;;17.15;12.07;;;;;;;24.76;57.37;95015.63;5128803;27;20269;-74
2023/06/05 08:45:23;;;;;;;16.05;11.68;;;;;;;23.64;59.99;95018.72;5128726;27;20219;-74
2023/06/05 08:47:52;;;;;;;17.33;12.15;;;;;;;23.98;60.80;95020.94;5128805;27;20240;-74
2023/06/05 08:50:19;;;;;;;16.92;12.30;;;;;;;22.97;62.17;95027.16;5128650;27;20700;-74
2023/06/05 08:52:49;;;;;;;15.57;12.13;;;;;;;22.45;63.82;95029.53;5129567;27;20205;-73
2023/06/05 08:55:17;;;;;;;14.57;11.05;;;;;;;21.90;65.58;95029.03;5133555;27;20560;-72
2023/06/05 08:57:44;;;;;;;16.73;11.88;;;;;;;21.91;64.82;95025.88;5150219;27;20212;-73
2023/06/05 09:00:12;;;;;;;16.45;11.82;;;;;;;21.97;65.05;95021.56;5153441;27;20204;-73
2023/06/05 09:02:43;;;;;;;16.50;11.95;;;;;;;21.86;65.41;95018.00;5153909;27;20205;-74
2023/06/05 09:05:12;;;;;;;17.35;11.23;;;;;;;22.13;65.23;95020.44;5147549;27;20201;-73
2023/06/05 09:07:39;;;;;;;14.93;10.18;;;;;;;21.84;65.16;95020.34;5132595;27;20204;-73
2023/06/05 09:10:08;;;;;;;15.30;11.05;;;;;;;21.72;66.39;95033.72;5137482;27;20221;-73
2023/06/05 09:12:53;;;;;;;16.65;11.23;;;;;;;21.75;66.66;95028.19;5153758;27;20257;-73
2023/06/05 09:15:24;;;;;;;14.90;11.38;;;;;;;21.55;67.14;95036.00;5145384;27;20261;-73
2023/06/05 09:18:05;;;;;;;13.93;10.90;;;;;;;22.08;64.75;95032.66;5132480;27;20286;-73
2023/06/05 09:20:37;;;;;;;15.95;10.85;;;;;;;21.85;65.66;95032.97;5133259;27;20254;-73
2023/06/05 09:23:06;;;;;;;13.23;10.25;;;;;;;21.39;67.60;95037.50;5132655;27;20197;-73
2023/06/05 09:25:48;;;;;;;17.55;11.02;;;;;;;21.35;67.17;95033.94;5132397;27;20205;-73
2023/06/05 09:28:16;;;;;;;15.15;10.57;;;;;;;21.27;68.14;95033.91;5132807;27;20273;-73
2023/06/05 09:30:56;;;;;;;17.77;11.25;;;;;;;21.53;68.62;95037.56;5132242;27;20590;-72
2023/06/05 09:33:24;;;;;;;15.45;10.60;;;;;;;21.69;68.55;95034.47;5143529;27;20295;-73
2023/06/05 09:36:04;;;;;;;12.10;9.90;;;;;;;21.32;68.13;95026.47;5134909;27;20648;-73
2023/06/05 09:38:31;;;;;;;14.15;10.10;;;;;;;21.32;68.35;95037.47;5132722;27;20204;-73
2023/06/05 09:41:05;;;;;;;13.82;10.20;;;;;;;21.51;68.24;95039.91;5132516;27;20232;-73
2023/06/05 09:43:32;;;;;;;11.90;9.32;;;;;;;21.63;66.80;95036.81;5132011;27;20216;-71
2023/06/05 09:45:59;;;;;;;10.93;8.68;;;;;;;22.21;66.02;95033.06;5132592;27;20300;-72
2023/06/05 09:48:26;;;;;;;12.68;9.50;;;;;;;22.57;64.09;95029.16;5132383;27;20228;-72
2023/06/05 09:50:54;;;;;;;17.75;9.65;;;;;;;22.62;65.68;95031.53;5132587;27;20212;-73
2023/06/05 09:53:23;;;;;;;16.13;11.38;;;;;;;22.69;67.11;95025.19;5146825;27;20663;-75
2023/06/05 09:55:50;;;;;;;18.20;11.88;;;;;;;22.38;68.54;95026.00;5143590;27;20664;-73
2023/06/05 09:58:18;;;;;;;15.43;11.18;;;;;;;22.60;66.51;95022.84;5133430;27;20287;-73
2023/06/05 10:00:46;;;;;;;13.35;9.45;;;;;;;22.97;65.26;95016.13;5152994;27;20252;-73
2023/06/05 10:03:18;;;;;;;11.80;8.82;;;;;;;23.08;63.07;95014.13;5136401;27;20257;-73
2023/06/05 10:05:45;;;;;;;13.85;9.32;;;;;;;23.01;64.23;95014.13;5131813;27;20608;-73
2023/06/05 10:08:13;;;;;;;15.77;10.23;;;;;;;22.65;65.02;95005.88;5131969;27;20320;-74
2023/06/05 10:10:43;;;;;;;12.27;9.40;;;;;;;22.88;64.71;95011.00;5130906;27;20679;-73
2023/06/05 10:13:11;;;;;;;14.50;8.82;;;;;;;22.66;64.00;95004.69;5150400;27;20400;-73
2023/06/05 10:15:41;;;;;;;14.63;9.32;;;;;;;22.54;65.35;95010.63;5140670;27;20250;-72
2023/06/05 10:18:07;;;;;;;11.90;8.98;;;;;;;22.50;64.72;95011.81;5131187;27;20703;-73
2023/06/05 10:20:36;;;;;;;14.38;9.38;;;;;;;22.96;65.34;95006.28;5131692;27;20208;-73
2023/06/05 10:23:05;;;;;;;13.77;9.15;;;;;;;23.40;65.31;95003.75;5131399;27;20212;-73
2023/06/05 10:25:34;;;;;;;14.65;9.52;;;;;;;23.53;65.15;95006.09;5131543;27;20224;-73
2023/06/05 10:28:24;;;;;;;13.35;10.02;;;;;;;23.52;67.47;95010.06;5131534;27;20232;-73
2023/06/05 10:31:19;;;;;;;13.95;10.40;;;;;;;23.15;71.26;95008.59;5148021;27;20312;-73
2023/06/05 10:34:06;;;;;;;12.75;10.00;;;;;;;23.08;70.09;95003.09;5149534;27;20717;-73
2023/06/05 10:36:50;;;;;;;14.23;10.95;;;;;;;22.69;73.00;95003.88;5131202;27;20209;-74
2023/06/05 10:39:18;;;;;;;15.25;11.13;;;;;;;22.52;73.40;94993.66;5131384;27;20225;-73
2023/06/05 10:41:45;;;;;;;17.48;13.45;;;;;;;22.86;73.42;95004.28;5131127;27;20209;-74
2023/06/05 10:44:13;;;;;;;18.52;11.68;;;;;;;23.26;73.15;94998.28;5145179;27;20205;-74
2023/06/05 10:46:41;;;;;;;15.07;10.73;;;;;;;23.15;71.14;94992.00;5131387;27;20274;-73
2023/06/05 10:49:14;;;;;;;14.98;10.90;;;;;;;23.09;72.48;94992.81;5130901;27;20587;-72
2023/06/05 10:51:42;;;;;;;13.65;10.57;;;;;;;22.70;73.35;94986.13;5131159;27;20586;-73
2023/06/05 10:54:11;;;;;;;13.55;10.18;;;;;;;22.36;72.72;94987.72;5130812;27;20262;-73
2023/06/05 10:56:58;;;;;;;11.52;9.27;;;;;;;22.15;73.44;94984.94;5130846;27;20201;-72
2023/06/05 10:59:27;;;;;;;13.63;9.48;;;;;;;22.46;73.70;94983.38;5141825;27;20246;-74
2023/06/05 11:02:25;;;;;;;12.05;9.18;;;;;;;22.51;70.43;94981.03;5137659;27;20643;-73
2023/06/05 11:05:06;;;;;;;16.77;11.07;;;;;;;22.63;72.72;94982.59;5135821;27;20201;-73
2023/06/05 11:07:33;;;;;;;14.57;10.90;;;;;;;22.66;73.04;94977.06;5131116;27;20204;-72
2023/06/05 11:10:08;;;;;;;12.55;10.02;;;;;;;22.87;73.22;94969.94;5130440;27;20236;-72
2023/06/05 11:13:00;;;;;;;13.63;10.00;;;;;;;23.15;73.27;94964.34;5130865;27;20265;-72
2023/06/05 11:15:44;;;;;;;12.98;9.73;;;;;;;23.21;71.53;94971.06;5130617;27;20204;-73
2023/06/05 11:18:33;;;;;;;12.68;9.55;;;;;;;23.24;70.20;94967.47;5130378;27;20229;-72
2023/06/05 11:21:01;;;;;;;11.10;9.35;;;;;;;23.38;68.52;94959.13;5130538;27;20291;-72
2023/06/05 11:23:29;;;;;;;11.35;8.85;;;;;;;23.21;66.54;94957.25;5130182;27;20763;-72
2023/06/05 11:26:00;;;;;;;11.07;8.07;;;;;;;22.73;66.46;94964.41;5130322;27;20209;-73